Time;durP1;ratioP1;P1;durP2;ratioP2;P2;SDS_P1;SDS_P2;PMS_P1;PMS_P2;Temp;Humidity;BMP_temperature;BMP_pressure;BME280_temperature;BME280_humidity;BME280_pressure;Samples;Min_cycle;Max_cycle;Signal;HPM_P1;HPM_P2
2022/03/22 00:00:04;;;;;;;;;;;;;;;;;;350026;28;905;-73
2022/03/22 00:00:14;;;;;;;;;;;;;;;;;;349867;28;1093;-73
2022/03/22 00:00:24;;;;;;;;;;;;;;;;;;349977;28;937;-73
2022/03/22 00:00:34;;;;;;;;;;;;;;;;;;350431;28;1582;-73
2022/03/22 00:00:45;;;;;;;;;;;;;;;;;;350641;28;1845;-73
2022/03/22 00:00:56;;;;;;;;;;;;;;;;;;351396;28;825;-73
2022/03/22 00:01:07;;;;;;;;;;;;;;;;;;351330;28;798;-73
2022/03/22 00:01:17;;;;;;;;;;;;;;;;;;351282;28;1184;-73
2022/03/22 00:01:28;;;;;;;;;;;;;;;;;;351418;28;888;-73
2022/03/22 00:01:38;;;;;;;;;;;;;;;;;;351055;28;1824;-73
2022/03/22 00:01:51;;;;;;;;;;;;;;;;;;351478;28;804;-73
2022/03/22 00:02:01;;;;;;;;;;;;;;;;;;351503;28;821;-73
2022/03/22 00:02:11;;;;;;;;;;;;;;;;;;351527;28;854;-73
2022/03/22 00:02:23;;;;;;;;;;;;;;;;;;351435;28;984;-73
2022/03/22 00:02:33;;;;;;;;;;;;;;;;;;351473;28;976;-73
2022/03/22 00:02:44;;;;;;;;;;;;;;;;;;351500;28;861;-73
2022/03/22 00:02:54;;;;;;;;;;;;;;;;;;351494;28;858;-73
2022/03/22 00:03:05;;;;;;;;;;;;;;;;;;351501;28;784;-73
2022/03/22 00:03:15;;;;;;;;;;;;;;;;;;351497;28;901;-73
2022/03/22 00:03:26;;;;;;;;;;;;;;;;;;351490;28;984;-73
2022/03/22 00:03:36;;;;;;;;;;;;;;;;;;351124;28;1843;-73
2022/03/22 00:03:46;;;;;;;;;;;;;;;;;;350023;28;1732;-73
2022/03/22 00:04:02;;;;;;;;;;;;;;;;;;351156;28;1560;-73
2022/03/22 00:04:12;;;;;;;;;;;;;;;;;;351517;28;1015;-73
2022/03/22 00:04:22;;;;;;;;;;;;;;;;;;351499;28;964;-73
2022/03/22 00:04:32;;;;;;;;;;;;;;;;;;351497;28;812;-73
2022/03/22 00:04:42;;;;;;;;;;;;;;;;;;351442;28;925;-73
2022/03/22 00:04:52;;;;;;;;;;;;;;;;;;351532;28;766;-73
2022/03/22 00:05:03;;;;;;;;;;;;;;;;;;351514;28;979;-73
2022/03/22 00:05:14;;;;;;;;;;;;;;;;;;351393;28;924;-73
2022/03/22 00:05:25;;;;;;;;;;;;;;;;;;351406;28;1079;-73
2022/03/22 00:05:40;;;;;;;;;;;;;;;;;;351149;28;1832;-73
2022/03/22 00:05:51;;;;;;;;;;;;;;;;;;351460;28;976;-73
2022/03/22 00:06:01;;;;;;;;;;;;;;;;;;351504;28;929;-73
2022/03/22 00:06:11;;;;;;;;;;;;;;;;;;351550;28;841;-73
2022/03/22 00:06:21;;;;;;;;;;;;;;;;;;351450;28;872;-73
2022/03/22 00:06:32;;;;;;;;;;;;;;;;;;351464;28;916;-73
2022/03/22 00:06:42;;;;;;;;;;;;;;;;;;351465;28;912;-73
2022/03/22 00:06:53;;;;;;;;;;;;;;;;;;351396;28;932;-73
2022/03/22 00:07:03;;;;;;;;;;;;;;;;;;351485;28;912;-73
2022/03/22 00:07:13;;;;;;;;;;;;;;;;;;351033;28;1294;-73
2022/03/22 00:07:24;;;;;;;;;;;;;;;;;;351034;28;1505;-73
2022/03/22 00:07:34;;;;;;;;;;;;;;;;;;350129;28;1422;-73
2022/03/22 00:07:44;;;;;;;;;;;;;;;;;;351352;28;937;-73
2022/03/22 00:07:54;;;;;;;;;;;;;;;;;;351160;28;1812;-73
2022/03/22 00:08:05;;;;;;;;;;;;;;;;;;350015;28;819;-73
2022/03/22 00:08:15;;;;;;;;;;;;;;;;;;350030;28;849;-73
2022/03/22 00:08:26;;;;;;;;;;;;;;;;;;349957;28;909;-73
2022/03/22 00:08:36;;;;;;;;;;;;;;;;;;350003;28;977;-73
2022/03/22 00:08:46;;;;;;;;;;;;;;;;;;350021;28;837;-73
2022/03/22 00:08:56;;;;;;;;;;;;;;;;;;350025;28;865;-73
2022/03/22 00:09:07;;;;;;;;;;;;;;;;;;350007;28;909;-73
2022/03/22 00:09:17;;;;;;;;;;;;;;;;;;350058;28;1000;-73
2022/03/22 00:09:28;;;;;;;;;;;;;;;;;;350065;28;953;-73
2022/03/22 00:09:38;;;;;;;;;;;;;;;;;;350096;28;957;-73
2022/03/22 00:09:48;;;;;;;;;;;;;;;;;;350079;28;850;-73
2022/03/22 00:09:58;;;;;;;;;;;;;;;;;;349875;28;1914;-73
2022/03/22 00:10:09;;;;;;;;;;;;;;;;;;350006;28;986;-73
2022/03/22 00:10:19;;;;;;;;;;;;;;;;;;350142;28;913;-73
2022/03/22 00:10:30;;;;;;;;;;;;;;;;;;350068;28;972;-73
2022/03/22 00:10:40;;;;;;;;;;;;;;;;;;350089;28;838;-73
2022/03/22 00:10:50;;;;;;;;;;;;;;;;;;350062;28;921;-73
2022/03/22 00:11:00;;;;;;;;;;;;;;;;;;352681;28;1333;-73
2022/03/22 00:11:11;;;;;;;;;;;;;;;;;;352804;28;845;-73
2022/03/22 00:11:21;;;;;;;;;;;;;;;;;;352784;28;853;-73
2022/03/22 00:11:33;;;;;;;;;;;;;;;;;;352811;28;988;-73
2022/03/22 00:11:43;;;;;;;;;;;;;;;;;;352807;28;998;-73
2022/03/22 00:11:53;;;;;;;;;;;;;;;;;;352696;28;1063;-73
2022/03/22 00:12:03;;;;;;;;;;;;;;;;;;352784;28;952;-73
2022/03/22 00:12:14;;;;;;;;;;;;;;;;;;352645;27;1796;-73
2022/03/22 00:12:24;;;;;;;;;;;;;;;;;;352782;28;1015;-73
2022/03/22 00:12:35;;;;;;;;;;;;;;;;;;352771;28;936;-73
2022/03/22 00:12:45;;;;;;;;;;;;;;;;;;352708;28;1142;-73
2022/03/22 00:12:55;;;;;;;;;;;;;;;;;;351655;28;774;-73
2022/03/22 00:13:06;;;;;;;;;;;;;;;;;;350079;28;1119;-73
2022/03/22 00:13:16;;;;;;;;;;;;;;;;;;350611;28;1585;-73
2022/03/22 00:13:28;;;;;;;;;;;;;;;;;;351428;28;917;-73
2022/03/22 00:13:39;;;;;;;;;;;;;;;;;;351444;28;1347;-73
2022/03/22 00:13:50;;;;;;;;;;;;;;;;;;351440;28;909;-73
2022/03/22 00:14:00;;;;;;;;;;;;;;;;;;351445;28;929;-73
2022/03/22 00:14:12;;;;;;;;;;;;;;;;;;351445;28;975;-73
2022/03/22 00:14:23;;;;;;;;;;;;;;;;;;351454;28;1098;-73
2022/03/22 00:14:33;;;;;;;;;;;;;;;;;;351445;28;880;-73
2022/03/22 00:14:44;;;;;;;;;;;;;;;;;;351515;28;853;-73
2022/03/22 00:14:55;;;;;;;;;;;;;;;;;;351040;28;1954;-73
2022/03/22 00:15:06;;;;;;;;;;;;;;;;;;349977;28;1705;-73
2022/03/22 00:15:16;;;;;;;;;;;;;;;;;;351433;28;1553;-73
2022/03/22 00:15:27;;;;;;;;;;;;;;;;;;351507;28;849;-73
2022/03/22 00:15:37;;;;;;;;;;;;;;;;;;351342;28;972;-73
2022/03/22 00:15:47;;;;;;;;;;;;;;;;;;351478;28;965;-73
2022/03/22 00:15:57;;;;;;;;;;;;;;;;;;351472;28;881;-73
2022/03/22 00:16:08;;;;;;;;;;;;;;;;;;351393;28;1018;-73
2022/03/22 00:16:19;;;;;;;;;;;;;;;;;;351438;28;1012;-73
2022/03/22 00:16:29;;;;;;;;;;;;;;;;;;351456;28;853;-73
2022/03/22 00:16:39;;;;;;;;;;;;;;;;;;351450;28;881;-73
2022/03/22 00:16:50;;;;;;;;;;;;;;;;;;351462;28;1619;-73
2022/03/22 00:17:04;;;;;;;;;;;;;;;;;;351481;28;873;-73
2022/03/22 00:17:14;;;;;;;;;;;;;;;;;;351433;28;908;-73
2022/03/22 00:17:24;;;;;;;;;;;;;;;;;;351387;28;1133;-73
2022/03/22 00:17:35;;;;;;;;;;;;;;;;;;351888;28;1287;-73
2022/03/22 00:17:45;;;;;;;;;;;;;;;;;;352835;28;769;-73
2022/03/22 00:17:55;;;;;;;;;;;;;;;;;;352899;28;880;-73
2022/03/22 00:18:05;;;;;;;;;;;;;;;;;;352759;28;1161;-73
2022/03/22 00:18:16;;;;;;;;;;;;;;;;;;352873;28;889;-73
2022/03/22 00:18:27;;;;;;;;;;;;;;;;;;352918;28;932;-73
2022/03/22 00:18:37;;;;;;;;;;;;;;;;;;352894;28;995;-73
2022/03/22 00:18:47;;;;;;;;;;;;;;;;;;352739;28;986;-73
2022/03/22 00:18:58;;;;;;;;;;;;;;;;;;352866;28;1043;-73
2022/03/22 00:19:08;;;;;;;;;;;;;;;;;;352855;28;1030;-73
2022/03/22 00:19:18;;;;;;;;;;;;;;;;;;351854;28;1807;-73
2022/03/22 00:19:28;;;;;;;;;;;;;;;;;;349885;28;1738;-73
2022/03/22 00:19:38;;;;;;;;;;;;;;;;;;350081;28;897;-73
2022/03/22 00:19:49;;;;;;;;;;;;;;;;;;350014;28;790;-73
2022/03/22 00:19:59;;;;;;;;;;;;;;;;;;350043;28;932;-73
2022/03/22 00:20:10;;;;;;;;;;;;;;;;;;350088;28;996;-73
2022/03/22 00:20:20;;;;;;;;;;;;;;;;;;349994;28;1136;-73
2022/03/22 00:20:30;;;;;;;;;;;;;;;;;;350050;28;972;-73
2022/03/22 00:20:42;;;;;;;;;;;;;;;;;;350122;28;904;-73
2022/03/22 00:20:52;;;;;;;;;;;;;;;;;;350064;28;976;-73
2022/03/22 00:21:02;;;;;;;;;;;;;;;;;;350078;28;786;-73
2022/03/22 00:21:12;;;;;;;;;;;;;;;;;;350098;28;925;-73
2022/03/22 00:21:23;;;;;;;;;;;;;;;;;;349906;28;1807;-73
2022/03/22 00:21:35;;;;;;;;;;;;;;;;;;350094;28;897;-73
2022/03/22 00:21:46;;;;;;;;;;;;;;;;;;350100;28;1004;-73
2022/03/22 00:21:56;;;;;;;;;;;;;;;;;;349997;28;834;-73
2022/03/22 00:22:06;;;;;;;;;;;;;;;;;;350057;28;925;-73
2022/03/22 00:22:16;;;;;;;;;;;;;;;;;;350065;28;1000;-73
2022/03/22 00:22:27;;;;;;;;;;;;;;;;;;349948;28;1054;-73
2022/03/22 00:22:38;;;;;;;;;;;;;;;;;;350068;28;944;-73
2022/03/22 00:22:49;;;;;;;;;;;;;;;;;;350081;28;980;-73
2022/03/22 00:22:59;;;;;;;;;;;;;;;;;;349817;28;1781;-73
2022/03/22 00:23:09;;;;;;;;;;;;;;;;;;350238;28;1788;-73
2022/03/22 00:23:21;;;;;;;;;;;;;;;;;;351468;28;909;-73
2022/03/22 00:23:32;;;;;;;;;;;;;;;;;;351439;28;849;-73
2022/03/22 00:23:42;;;;;;;;;;;;;;;;;;351494;28;1019;-73
2022/03/22 00:23:54;;;;;;;;;;;;;;;;;;351377;28;987;-73
2022/03/22 00:24:04;;;;;;;;;;;;;;;;;;351372;28;964;-73
2022/03/22 00:24:15;;;;;;;;;;;;;;;;;;351497;28;855;-73
2022/03/22 00:24:25;;;;;;;;;;;;;;;;;;351346;28;994;-73
2022/03/22 00:24:35;;;;;;;;;;;;;;;;;;351501;28;944;-73
2022/03/22 00:24:45;;;;;;;;;;;;;;;;;;351429;28;873;-73
2022/03/22 00:24:56;;;;;;;;;;;;;;;;;;351154;28;1820;-73
2022/03/22 00:25:07;;;;;;;;;;;;;;;;;;351404;28;850;-73
2022/03/22 00:25:17;;;;;;;;;;;;;;;;;;351486;28;778;-73
2022/03/22 00:25:27;;;;;;;;;;;;;;;;;;351352;28;969;-73
2022/03/22 00:25:38;;;;;;;;;;;;;;;;;;351486;28;972;-73
2022/03/22 00:25:48;;;;;;;;;;;;;;;;;;351422;28;991;-73
2022/03/22 00:25:58;;;;;;;;;;;;;;;;;;351379;28;1011;-73
2022/03/22 00:26:08;;;;;;;;;;;;;;;;;;351369;28;1011;-73
2022/03/22 00:26:18;;;;;;;;;;;;;;;;;;351475;28;983;-73
2022/03/22 00:26:29;;;;;;;;;;;;;;;;;;351426;28;856;-73
2022/03/22 00:26:39;;;;;;;;;;;;;;;;;;351470;28;972;-73
2022/03/22 00:26:49;;;;;;;;;;;;;;;;;;351165;28;1709;-73
2022/03/22 00:26:59;;;;;;;;;;;;;;;;;;351464;28;925;-73
2022/03/22 00:27:10;;;;;;;;;;;;;;;;;;351318;28;1003;-73
2022/03/22 00:27:20;;;;;;;;;;;;;;;;;;351394;28;977;-73
2022/03/22 00:27:50;;;;;;;;;;;;;;;;;;351434;28;921;-73
2022/03/22 00:28:01;;;;;;;;;;;;;;;;;;351427;28;948;-73
2022/03/22 00:28:12;;;;;;;;;;;;;;;;;;351328;28;781;-73
2022/03/22 00:28:23;;;;;;;;;;;;;;;;;;351405;28;991;-73
2022/03/22 00:28:33;;;;;;;;;;;;;;;;;;351474;28;940;-73
2022/03/22 00:28:45;;;;;;;;;;;;;;;;;;351459;28;944;-73
2022/03/22 00:28:55;;;;;;;;;;;;;;;;;;351481;28;824;-73
2022/03/22 00:29:05;;;;;;;;;;;;;;;;;;351317;28;1026;-73
2022/03/22 00:29:15;;;;;;;;;;;;;;;;;;351501;28;820;-73
2022/03/22 00:29:25;;;;;;;;;;;;;;;;;;350424;28;1894;-73
2022/03/22 00:29:36;;;;;;;;;;;;;;;;;;350090;28;885;-73
2022/03/22 00:29:46;;;;;;;;;;;;;;;;;;350034;28;905;-73
2022/03/22 00:29:58;;;;;;;;;;;;;;;;;;350045;28;1023;-73
2022/03/22 00:30:08;;;;;;;;;;;;;;;;;;350015;28;857;-73
2022/03/22 00:30:32;;;;;;;;;;;;;;;;;;349951;28;1096;-73
2022/03/22 00:30:43;;;;;;;;;;;;;;;;;;350090;28;968;-73
2022/03/22 00:30:54;;;;;;;;;;;;;;;;;;350041;28;967;-73
2022/03/22 00:31:07;;;;;;;;;;;;;;;;;;350051;28;960;-73
2022/03/22 00:31:17;;;;;;;;;;;;;;;;;;350044;28;992;-73
2022/03/22 00:31:27;;;;;;;;;;;;;;;;;;349897;28;1757;-73
2022/03/22 00:31:39;;;;;;;;;;;;;;;;;;350932;28;1713;-73
2022/03/22 00:31:49;;;;;;;;;;;;;;;;;;350156;28;998;-73
2022/03/22 00:31:59;;;;;;;;;;;;;;;;;;350064;28;1000;-73
2022/03/22 00:32:10;;;;;;;;;;;;;;;;;;349981;28;945;-73
2022/03/22 00:32:20;;;;;;;;;;;;;;;;;;350028;28;821;-73
2022/03/22 00:32:30;;;;;;;;;;;;;;;;;;350081;28;853;-73
2022/03/22 00:32:40;;;;;;;;;;;;;;;;;;350065;28;841;-73
2022/03/22 00:32:53;;;;;;;;;;;;;;;;;;350088;28;881;-73
2022/03/22 00:33:04;;;;;;;;;;;;;;;;;;350032;28;960;-73
2022/03/22 00:33:15;;;;;;;;;;;;;;;;;;350017;28;905;-73
2022/03/22 00:33:25;;;;;;;;;;;;;;;;;;350064;28;925;-73
2022/03/22 00:33:36;;;;;;;;;;;;;;;;;;349986;28;1008;-73
2022/03/22 00:33:46;;;;;;;;;;;;;;;;;;349931;28;1460;-73
2022/03/22 00:33:56;;;;;;;;;;;;;;;;;;351326;28;1472;-73
2022/03/22 00:34:06;;;;;;;;;;;;;;;;;;350936;28;1756;-73
2022/03/22 00:34:16;;;;;;;;;;;;;;;;;;351006;28;1694;-73
2022/03/22 00:34:27;;;;;;;;;;;;;;;;;;351416;28;920;-73
2022/03/22 00:34:44;;;;;;;;;;;;;;;;;;351466;28;917;-73
2022/03/22 00:34:54;;;;;;;;;;;;;;;;;;351413;28;1043;-73
2022/03/22 00:35:04;;;;;;;;;;;;;;;;;;351448;28;932;-73
2022/03/22 00:35:18;;;;;;;;;;;;;;;;;;351400;28;841;-73
2022/03/22 00:35:36;;;;;;;;;;;;;;;;;;351512;28;924;-73
2022/03/22 00:35:46;;;;;;;;;;;;;;;;;;351453;28;881;-73
2022/03/22 00:35:57;;;;;;;;;;;;;;;;;;351457;28;845;-73
2022/03/22 00:36:07;;;;;;;;;;;;;;;;;;351025;28;1788;-73
2022/03/22 00:36:17;;;;;;;;;;;;;;;;;;351473;28;853;-73
2022/03/22 00:36:27;;;;;;;;;;;;;;;;;;351399;28;928;-73
2022/03/22 00:36:37;;;;;;;;;;;;;;;;;;351413;28;893;-73
2022/03/22 00:36:49;;;;;;;;;;;;;;;;;;351476;28;837;-73
2022/03/22 00:37:00;;;;;;;;;;;;;;;;;;351481;28;754;-73
2022/03/22 00:37:13;;;;;;;;;;;;;;;;;;351403;28;936;-73
2022/03/22 00:37:24;;;;;;;;;;;;;;;;;;351430;28;881;-73
2022/03/22 00:37:40;;;;;;;;;;;;;;;;;;351412;28;854;-73
2022/03/22 00:37:56;;;;;;;;;;;;;;;;;;351452;28;904;-73
2022/03/22 00:38:08;;;;;;;;;;;;;;;;;;351414;28;944;-73
2022/03/22 00:38:20;;;;;;;;;;;;;;;;;;351433;28;1000;-73
2022/03/22 00:38:30;;;;;;;;;;;;;;;;;;351360;28;925;-73
2022/03/22 00:38:40;;;;;;;;;;;;;;;;;;351406;28;921;-73
2022/03/22 00:38:50;;;;;;;;;;;;;;;;;;351421;28;902;-73
2022/03/22 00:39:02;;;;;;;;;;;;;;;;;;351420;28;1042;-73
2022/03/22 00:39:12;;;;;;;;;;;;;;;;;;351444;28;956;-73
2022/03/22 00:39:23;;;;;;;;;;;;;;;;;;351371;28;940;-73
2022/03/22 00:39:33;;;;;;;;;;;;;;;;;;351244;28;1858;-73
2022/03/22 00:39:43;;;;;;;;;;;;;;;;;;351354;28;1752;-73
2022/03/22 00:39:54;;;;;;;;;;;;;;;;;;351443;28;1079;-73
2022/03/22 00:40:16;;;;;;;;;;;;;;;;;;351464;28;900;-73
2022/03/22 00:40:27;;;;;;;;;;;;;;;;;;351490;28;852;-73
2022/03/22 00:40:38;;;;;;;;;;;;;;;;;;351370;28;1062;-73
2022/03/22 00:40:48;;;;;;;;;;;;;;;;;;351452;28;963;-73
2022/03/22 00:40:58;;;;;;;;;;;;;;;;;;351415;28;1019;-73
2022/03/22 00:41:09;;;;;;;;;;;;;;;;;;351366;28;1055;-73
2022/03/22 00:41:19;;;;;;;;;;;;;;;;;;351428;28;967;-73
2022/03/22 00:41:30;;;;;;;;;;;;;;;;;;351436;28;896;-73
2022/03/22 00:41:40;;;;;;;;;;;;;;;;;;351432;28;901;-73
2022/03/22 00:41:52;;;;;;;;;;;;;;;;;;351169;28;1856;-73
2022/03/22 00:42:02;;;;;;;;;;;;;;;;;;351393;28;939;-73
2022/03/22 00:42:14;;;;;;;;;;;;;;;;;;351464;28;904;-73
2022/03/22 00:42:24;;;;;;;;;;;;;;;;;;351431;28;876;-73
2022/03/22 00:42:34;;;;;;;;;;;;;;;;;;351474;28;912;-73
2022/03/22 00:42:46;;;;;;;;;;;;;;;;;;351454;28;616;-73
2022/03/22 00:42:57;;;;;;;;;;;;;;;;;;351394;28;956;-73
2022/03/22 00:43:07;;;;;;;;;;;;;;;;;;351466;28;825;-73
2022/03/22 00:43:17;;;;;;;;;;;;;;;;;;351411;28;1042;-73
2022/03/22 00:43:28;;;;;;;;;;;;;;;;;;351303;28;1140;-73
2022/03/22 00:43:38;;;;;;;;;;;;;;;;;;351508;28;746;-73
2022/03/22 00:43:48;;;;;;;;;;;;;;;;;;351409;28;924;-73
2022/03/22 00:43:58;;;;;;;;;;;;;;;;;;350166;28;1788;-73
2022/03/22 00:44:09;;;;;;;;;;;;;;;;;;350054;28;936;-73
2022/03/22 00:44:19;;;;;;;;;;;;;;;;;;350003;28;952;-73
2022/03/22 00:44:29;;;;;;;;;;;;;;;;;;350008;28;1008;-73
2022/03/22 00:44:40;;;;;;;;;;;;;;;;;;350058;28;774;-73
2022/03/22 00:44:50;;;;;;;;;;;;;;;;;;349916;28;921;-73
2022/03/22 00:45:01;;;;;;;;;;;;;;;;;;350079;28;774;-73
2022/03/22 00:45:13;;;;;;;;;;;;;;;;;;350028;28;924;-73
2022/03/22 00:45:27;;;;;;;;;;;;;;;;;;349969;28;971;-73
2022/03/22 00:45:37;;;;;;;;;;;;;;;;;;350064;28;916;-73
2022/03/22 00:45:48;;;;;;;;;;;;;;;;;;349989;28;933;-73
2022/03/22 00:45:58;;;;;;;;;;;;;;;;;;349988;28;1804;-73
2022/03/22 00:46:08;;;;;;;;;;;;;;;;;;350023;28;960;-73
2022/03/22 00:46:18;;;;;;;;;;;;;;;;;;349899;28;1027;-73
2022/03/22 00:46:28;;;;;;;;;;;;;;;;;;351331;28;1596;-73
2022/03/22 00:46:39;;;;;;;;;;;;;;;;;;351435;28;983;-73
2022/03/22 00:46:50;;;;;;;;;;;;;;;;;;351339;28;979;-73
2022/03/22 00:47:00;;;;;;;;;;;;;;;;;;351489;28;853;-73
2022/03/22 00:47:10;;;;;;;;;;;;;;;;;;351443;28;865;-73
2022/03/22 00:47:20;;;;;;;;;;;;;;;;;;351402;28;866;-73
2022/03/22 00:47:31;;;;;;;;;;;;;;;;;;351406;28;975;-73
2022/03/22 00:47:44;;;;;;;;;;;;;;;;;;351334;28;1018;-73
2022/03/22 00:47:55;;;;;;;;;;;;;;;;;;351380;28;801;-73
2022/03/22 00:48:07;;;;;;;;;;;;;;;;;;351476;28;952;-73
2022/03/22 00:48:18;;;;;;;;;;;;;;;;;;351390;28;912;-73
2022/03/22 00:48:29;;;;;;;;;;;;;;;;;;351417;28;1047;-73
2022/03/22 00:48:40;;;;;;;;;;;;;;;;;;351489;28;798;-73
2022/03/22 00:48:51;;;;;;;;;;;;;;;;;;351451;28;924;-73
2022/03/22 00:49:02;;;;;;;;;;;;;;;;;;351362;28;1062;-73
2022/03/22 00:49:13;;;;;;;;;;;;;;;;;;351360;28;940;-73
2022/03/22 00:49:23;;;;;;;;;;;;;;;;;;351492;28;861;-73
2022/03/22 00:49:34;;;;;;;;;;;;;;;;;;351410;28;944;-73
2022/03/22 00:49:44;;;;;;;;;;;;;;;;;;351169;28;1863;-73
2022/03/22 00:49:54;;;;;;;;;;;;;;;;;;351273;28;1804;-73
2022/03/22 00:50:05;;;;;;;;;;;;;;;;;;351272;28;1984;-73
2022/03/22 00:50:16;;;;;;;;;;;;;;;;;;351243;28;1191;-73
2022/03/22 00:50:28;;;;;;;;;;;;;;;;;;351406;28;865;-73
2022/03/22 00:50:40;;;;;;;;;;;;;;;;;;351412;28;975;-73
2022/03/22 00:50:53;;;;;;;;;;;;;;;;;;351423;28;999;-73
2022/03/22 00:51:04;;;;;;;;;;;;;;;;;;351075;28;1721;-73
2022/03/22 00:51:14;;;;;;;;;;;;;;;;;;350208;28;1834;-73
2022/03/22 00:51:25;;;;;;;;;;;;;;;;;;349970;28;913;-73
2022/03/22 00:51:35;;;;;;;;;;;;;;;;;;349930;28;1013;-73
2022/03/22 00:51:47;;;;;;;;;;;;;;;;;;350040;28;933;-73
2022/03/22 00:51:59;;;;;;;;;;;;;;;;;;349983;28;957;-73
2022/03/22 00:52:09;;;;;;;;;;;;;;;;;;350045;28;925;-73
2022/03/22 00:52:19;;;;;;;;;;;;;;;;;;350054;28;789;-73
2022/03/22 00:52:30;;;;;;;;;;;;;;;;;;349967;28;826;-73
2022/03/22 00:52:40;;;;;;;;;;;;;;;;;;349962;28;1007;-73
2022/03/22 00:52:51;;;;;;;;;;;;;;;;;;350020;28;976;-73
2022/03/22 00:53:02;;;;;;;;;;;;;;;;;;350005;28;1054;-73
2022/03/22 00:53:13;;;;;;;;;;;;;;;;;;350043;28;770;-73
2022/03/22 00:53:23;;;;;;;;;;;;;;;;;;350035;28;916;-73
2022/03/22 00:53:33;;;;;;;;;;;;;;;;;;350024;28;912;-73
2022/03/22 00:53:45;;;;;;;;;;;;;;;;;;349962;28;1718;-73
2022/03/22 00:53:59;;;;;;;;;;;;;;;;;;350025;28;933;-73
2022/03/22 00:54:10;;;;;;;;;;;;;;;;;;350036;28;929;-73
2022/03/22 00:54:20;;;;;;;;;;;;;;;;;;350994;28;1321;-73
2022/03/22 00:54:33;;;;;;;;;;;;;;;;;;351453;28;785;-73
2022/03/22 00:54:44;;;;;;;;;;;;;;;;;;351407;28;1855;-73
2022/03/22 00:54:54;;;;;;;;;;;;;;;;;;349905;28;1740;-73
2022/03/22 00:55:05;;;;;;;;;;;;;;;;;;349918;28;1097;-73
2022/03/22 00:55:16;;;;;;;;;;;;;;;;;;349912;28;905;-73
2022/03/22 00:55:27;;;;;;;;;;;;;;;;;;349924;28;1059;-73
2022/03/22 00:55:40;;;;;;;;;;;;;;;;;;350041;28;968;-73
2022/03/22 00:55:50;;;;;;;;;;;;;;;;;;350024;28;995;-73
2022/03/22 00:56:01;;;;;;;;;;;;;;;;;;349912;28;1152;-73
2022/03/22 00:56:11;;;;;;;;;;;;;;;;;;350030;28;824;-73
2022/03/22 00:56:25;;;;;;;;;;;;;;;;;;350013;28;975;-73
2022/03/22 00:56:35;;;;;;;;;;;;;;;;;;350020;28;1008;-73
2022/03/22 00:56:45;;;;;;;;;;;;;;;;;;349931;28;1768;-69
2022/03/22 00:56:55;;;;;;;;;;;;;;;;;;349964;28;979;-70
2022/03/22 00:57:06;;;;;;;;;;;;;;;;;;349981;28;1020;-70
2022/03/22 00:57:17;;;;;;;;;;;;;;;;;;349921;28;1043;-70
2022/03/22 00:57:27;;;;;;;;;;;;;;;;;;350018;28;862;-70
2022/03/22 00:57:38;;;;;;;;;;;;;;;;;;350028;28;992;-70
2022/03/22 00:57:49;;;;;;;;;;;;;;;;;;349955;28;824;-70
2022/03/22 00:57:59;;;;;;;;;;;;;;;;;;350026;28;983;-70
2022/03/22 00:58:10;;;;;;;;;;;;;;;;;;349900;28;1485;-70
2022/03/22 00:58:21;;;;;;;;;;;;;;;;;;350063;28;816;-70
2022/03/22 00:58:32;;;;;;;;;;;;;;;;;;350058;28;774;-70
2022/03/22 00:58:42;;;;;;;;;;;;;;;;;;349951;28;983;-70
2022/03/22 01:00:01;;;;;;;;;;;;;;;;;;349959;28;1858;-70
2022/03/22 01:00:06;;;;;;;;;;;;;;;;;;349960;28;953;-70
2022/03/22 01:00:16;;;;;;;;;;;;;;;;;;350011;28;913;-69
2022/03/22 01:00:27;;;;;;;;;;;;;;;;;;350074;28;770;-70
2022/03/22 01:00:37;;;;;;;;;;;;;;;;;;349963;28;957;-70
2022/03/22 01:00:48;;;;;;;;;;;;;;;;;;349923;28;1859;-69
2022/03/22 01:00:59;;;;;;;;;;;;;;;;;;349994;28;1054;-70
2022/03/22 01:01:09;;;;;;;;;;;;;;;;;;350447;28;1588;-70
2022/03/22 01:01:20;;;;;;;;;;;;;;;;;;350248;28;1741;-70
2022/03/22 01:01:30;;;;;;;;;;;;;;;;;;351386;28;925;-70
2022/03/22 01:01:40;;;;;;;;;;;;;;;;;;351348;28;849;-70
2022/03/22 01:01:51;;;;;;;;;;;;;;;;;;351276;28;836;-70
2022/03/22 01:02:01;;;;;;;;;;;;;;;;;;351235;28;924;-70
2022/03/22 01:02:11;;;;;;;;;;;;;;;;;;351117;28;1025;-70
2022/03/22 01:02:22;;;;;;;;;;;;;;;;;;351241;28;987;-70
2022/03/22 01:02:37;;;;;;;;;;;;;;;;;;351293;28;921;-70
2022/03/22 01:02:49;;;;;;;;;;;;;;;;;;351212;28;995;-70
2022/03/22 01:03:00;;;;;;;;;;;;;;;;;;351469;28;773;-70
2022/03/22 01:03:11;;;;;;;;;;;;;;;;;;351465;28;951;-70
2022/03/22 01:03:21;;;;;;;;;;;;;;;;;;351291;28;1008;-70
2022/03/22 01:03:31;;;;;;;;;;;;;;;;;;351354;28;1003;-70
2022/03/22 01:03:41;;;;;;;;;;;;;;;;;;351443;28;794;-70
2022/03/22 01:03:52;;;;;;;;;;;;;;;;;;350466;28;1874;-69
2022/03/22 01:04:04;;;;;;;;;;;;;;;;;;351390;28;951;-70
2022/03/22 01:04:15;;;;;;;;;;;;;;;;;;351457;28;924;-70
2022/03/22 01:04:26;;;;;;;;;;;;;;;;;;351457;28;885;-70
2022/03/22 01:04:36;;;;;;;;;;;;;;;;;;351374;28;913;-70
2022/03/22 01:04:46;;;;;;;;;;;;;;;;;;351444;28;916;-70
2022/03/22 01:04:57;;;;;;;;;;;;;;;;;;351233;28;1002;-70
2022/03/22 01:05:11;;;;;;;;;;;;;;;;;;351474;28;856;-70
2022/03/22 01:05:22;;;;;;;;;;;;;;;;;;351390;28;924;-70
2022/03/22 01:05:34;;;;;;;;;;;;;;;;;;350198;28;1613;-70
2022/03/22 01:05:44;;;;;;;;;;;;;;;;;;350710;28;1756;-70
2022/03/22 01:05:55;;;;;;;;;;;;;;;;;;350325;28;1704;-70
2022/03/22 01:06:05;;;;;;;;;;;;;;;;;;350015;28;917;-70
2022/03/22 01:06:17;;;;;;;;;;;;;;;;;;349897;28;1025;-70
2022/03/22 01:06:27;;;;;;;;;;;;;;;;;;349978;28;876;-70
2022/03/22 01:06:38;;;;;;;;;;;;;;;;;;350005;28;956;-70
2022/03/22 01:06:48;;;;;;;;;;;;;;;;;;350015;28;797;-70
2022/03/22 01:06:58;;;;;;;;;;;;;;;;;;349977;28;913;-70
2022/03/22 01:07:08;;;;;;;;;;;;;;;;;;349986;28;964;-70
2022/03/22 01:07:20;;;;;;;;;;;;;;;;;;349971;28;1008;-70
2022/03/22 01:07:31;;;;;;;;;;;;;;;;;;350025;28;937;-70
2022/03/22 01:07:42;;;;;;;;;;;;;;;;;;349939;28;924;-70
2022/03/22 01:07:54;;;;;;;;;;;;;;;;;;350013;28;888;-70
2022/03/22 01:08:06;;;;;;;;;;;;;;;;;;349803;28;1725;-70
2022/03/22 01:08:16;;;;;;;;;;;;;;;;;;349949;28;984;-70
2022/03/22 01:08:29;;;;;;;;;;;;;;;;;;349939;28;1003;-70
2022/03/22 01:08:39;;;;;;;;;;;;;;;;;;350004;28;877;-70
2022/03/22 01:08:49;;;;;;;;;;;;;;;;;;349935;28;976;-70
2022/03/22 01:09:00;;;;;;;;;;;;;;;;;;349909;28;1000;-70
2022/03/22 01:09:10;;;;;;;;;;;;;;;;;;349964;28;968;-70
2022/03/22 01:09:20;;;;;;;;;;;;;;;;;;349969;28;995;-70
2022/03/22 01:09:31;;;;;;;;;;;;;;;;;;350026;28;789;-70
2022/03/22 01:09:41;;;;;;;;;;;;;;;;;;349985;28;786;-70
2022/03/22 01:09:51;;;;;;;;;;;;;;;;;;349901;28;1906;-70
2022/03/22 01:10:05;;;;;;;;;;;;;;;;;;349902;28;1901;-70
2022/03/22 01:10:17;;;;;;;;;;;;;;;;;;349961;28;1023;-70
2022/03/22 01:10:28;;;;;;;;;;;;;;;;;;349879;28;1034;-70
2022/03/22 01:10:41;;;;;;;;;;;;;;;;;;350025;28;913;-70
2022/03/22 01:10:54;;;;;;;;;;;;;;;;;;349979;28;929;-70
2022/03/22 01:11:04;;;;;;;;;;;;;;;;;;349967;28;1011;-70
2022/03/22 01:11:15;;;;;;;;;;;;;;;;;;350016;28;940;-70
2022/03/22 01:11:25;;;;;;;;;;;;;;;;;;349970;28;944;-70
2022/03/22 01:11:36;;;;;;;;;;;;;;;;;;350070;28;916;-70
2022/03/22 01:11:47;;;;;;;;;;;;;;;;;;350014;28;1000;-70
2022/03/22 01:11:57;;;;;;;;;;;;;;;;;;349910;28;1047;-70
2022/03/22 01:12:08;;;;;;;;;;;;;;;;;;350048;28;783;-70
2022/03/22 01:12:18;;;;;;;;;;;;;;;;;;350014;28;864;-70
2022/03/22 01:12:29;;;;;;;;;;;;;;;;;;349907;28;1063;-70
2022/03/22 01:12:40;;;;;;;;;;;;;;;;;;350030;28;929;-70
2022/03/22 01:12:51;;;;;;;;;;;;;;;;;;350027;28;798;-70
2022/03/22 01:13:01;;;;;;;;;;;;;;;;;;349938;28;999;-70
2022/03/22 01:13:11;;;;;;;;;;;;;;;;;;349984;28;1004;-70
2022/03/22 01:13:23;;;;;;;;;;;;;;;;;;350006;28;921;-70
2022/03/22 01:13:33;;;;;;;;;;;;;;;;;;349933;28;1102;-70
2022/03/22 01:13:43;;;;;;;;;;;;;;;;;;349930;28;1854;-70
2022/03/22 01:13:56;;;;;;;;;;;;;;;;;;349773;28;1638;-70
2022/03/22 01:14:07;;;;;;;;;;;;;;;;;;351188;28;1800;-70
2022/03/22 01:14:17;;;;;;;;;;;;;;;;;;351397;28;877;-70
2022/03/22 01:14:28;;;;;;;;;;;;;;;;;;350724;28;1802;-70
2022/03/22 01:14:39;;;;;;;;;;;;;;;;;;349986;28;929;-70
2022/03/22 01:14:49;;;;;;;;;;;;;;;;;;350014;28;992;-70
2022/03/22 01:15:00;;;;;;;;;;;;;;;;;;349941;28;976;-70
2022/03/22 01:15:15;;;;;;;;;;;;;;;;;;349838;28;1008;-70
2022/03/22 01:15:28;;;;;;;;;;;;;;;;;;350032;28;1191;-70
2022/03/22 01:15:42;;;;;;;;;;;;;;;;;;350005;28;991;-70
2022/03/22 01:15:53;;;;;;;;;;;;;;;;;;349969;28;869;-70
2022/03/22 01:16:03;;;;;;;;;;;;;;;;;;349916;28;929;-70
2022/03/22 01:16:13;;;;;;;;;;;;;;;;;;349962;28;925;-70
2022/03/22 01:16:23;;;;;;;;;;;;;;;;;;350041;28;857;-70
2022/03/22 01:16:34;;;;;;;;;;;;;;;;;;349957;28;969;-70
2022/03/22 01:16:44;;;;;;;;;;;;;;;;;;349990;28;909;-70
2022/03/22 01:16:57;;;;;;;;;;;;;;;;;;349877;28;1698;-70
2022/03/22 01:17:08;;;;;;;;;;;;;;;;;;349982;28;807;-70
2022/03/22 01:17:18;;;;;;;;;;;;;;;;;;349949;28;874;-70
2022/03/22 01:17:31;;;;;;;;;;;;;;;;;;350004;28;985;-70
2022/03/22 01:17:42;;;;;;;;;;;;;;;;;;350033;28;1016;-69
2022/03/22 01:17:56;;;;;;;;;;;;;;;;;;350006;28;964;-70
2022/03/22 01:18:08;;;;;;;;;;;;;;;;;;349872;28;921;-70
2022/03/22 01:18:18;;;;;;;;;;;;;;;;;;349880;28;1011;-70
2022/03/22 01:18:28;;;;;;;;;;;;;;;;;;349982;28;774;-70
2022/03/22 01:18:39;;;;;;;;;;;;;;;;;;350048;28;880;-70
2022/03/22 01:18:49;;;;;;;;;;;;;;;;;;349930;28;996;-70
2022/03/22 01:18:59;;;;;;;;;;;;;;;;;;350021;28;889;-70